Date,TemperatureHighF,TemperatureAvgF,TemperatureLowF,DewpointHighF,DewpointAvgF,DewpointLowF,HumidityHigh,HumidityAvg,HumidityLow,PressureMaxIn,PressureMinIn,WindSpeedMaxMPH,WindSpeedAvgMPH,GustSpeedMaxMPH,PrecipitationSumIn
2013-1-1,15.9,1.2,-15.6,11.0,-6.9,-22.0,82,69,53,30.30,30.06,3,0,0,0.00
2013-1-2,21.0,15.2,6.9,12.0,8.4,2.0,85,75,59,30.07,29.94,4,0,0,0.00
2013-1-3,19.9,15.5,7.6,17.0,10.0,1.0,88,79,70,30.20,30.04,4,1,0,0.00
2013-1-4,32.1,19.0,7.6,17.0,11.0,3.0,89,72,52,30.13,29.99,12,1,0,0.00
2013-1-5,27.3,15.5,4.7,21.0,10.3,0.0,90,80,66,30.12,29.83,4,0,0,0.00
2013-1-6,26.1,17.9,5.6,17.0,10.7,1.0,86,74,56,30.20,29.91,5,1,0,0.00
2013-1-7,38.2,26.1,10.5,24.0,18.2,7.0,87,73,57,30.11,29.86,7,1,0,0.01
2013-1-8,39.2,25.5,8.1,29.0,19.4,4.0,95,78,62,29.99,29.76,10,1,0,0.00
2013-1-9,38.6,30.7,18.6,26.0,21.4,15.0,84,69,49,30.34,29.82,17,2,0,0.00
2013-1-10,41.3,29.9,16.9,33.0,21.8,14.0,95,75,42,30.36,29.72,4,0,0,0.25
2013-1-11,41.6,36.6,33.8,41.0,36.0,33.0,99,97,96,29.74,29.36,3,0,0,0.01
2013-1-12,42.5,23.3,9.7,42.0,16.1,1.0,99,74,62,30.04,29.34,17,3,0,0.00
2013-1-13,12.4,8.0,4.3,4.0,0.3,-2.0,77,71,62,30.24,29.99,5,1,0,0.00
2013-1-14,15.4,6.6,0.0,6.0,0.0,-5.0,84,75,65,30.39,30.23,6,1,0,0.00
2013-1-15,31.8,18.1,0.3,16.0,8.9,-5.0,89,69,49,30.34,29.86,9,1,0,0.00
2013-1-16,35.0,26.7,15.9,29.0,17.0,1.0,84,68,42,30.13,29.63,9,2,0,0.01
2013-1-17,18.4,12.3,5.6,6.0,0.5,-5.0,83,60,46,30.39,30.14,6,1,0,0.00
2013-1-18,43.9,27.6,7.7,30.0,20.3,4.0,84,74,57,30.32,29.68,13,1,0,0.03
2013-1-19,41.1,25.6,4.5,31.0,18.0,-6.0,90,73,49,30.08,29.59,10,2,0,0.00
2013-1-20,9.5,4.1,-0.4,-4.0,-6.5,-9.0,73,62,45,30.36,30.09,9,2,0,0.00
2013-1-21,1.8,-5.6,-9.3,-7.0,-17.3,-22.0,68,57,47,30.32,30.20,12,2,0,0.00
2013-1-22,1.5,-5.4,-12.5,-10.0,-15.9,-21.0,74,61,48,30.41,30.27,4,0,0,0.00
2013-1-23,15.6,5.1,-4.8,6.0,-4.5,-18.0,80,65,43,30.57,30.10,10,2,0,0.00
2013-1-24,10.4,1.4,-7.5,1.0,-10.1,-18.0,67,59,52,30.70,30.27,4,1,0,0.00
2013-1-25,20.6,13.6,5.8,13.0,6.0,-2.0,81,72,57,30.25,29.90,7,1,0,0.00
2013-1-26,23.0,10.6,-7.0,11.0,0.3,-13.0,83,64,49,30.39,30.17,9,1,0,0.00
2013-1-27,30.4,26.7,19.7,29.0,19.9,10.0,95,77,58,30.18,29.77,5,0,0,0.00
2013-1-28,35.0,31.5,29.7,32.0,29.9,29.0,96,94,86,29.88,29.63,2,0,0,0.07
2013-1-29,34.3,33.0,29.8,34.0,30.9,24.0,100,92,78,29.62,29.45,7,1,0,0.40
2013-1-30,29.7,19.7,11.2,24.0,13.8,3.0,88,78,69,29.65,29.49,10,3,0,0.00
2013-1-31,11.2,4.6,-3.9,5.0,-3.6,-14.0,79,69,60,30.20,29.65,9,3,0,0.00
2013-2-1,5.0,-2.9,-11.7,-2.0,-13.8,-21.0,78,60,44,30.33,30.09,5,1,0,0.00
2013-2-2,14.0,6.0,1.7,1.0,-3.1,-7.0,79,67,45,30.17,29.96,5,0,0,0.00
2013-2-3,15.7,10.5,6.5,5.0,1.5,-1.0,81,68,50,30.03,29.93,6,1,0,0.00
2013-2-4,19.2,9.7,0.7,6.0,-0.6,-5.0,81,65,37,30.03,29.84,4,0,0,0.03
2013-2-5,26.7,17.1,-0.8,22.0,10.4,-7.0,88,75,58,30.07,29.64,6,1,0,0.00
2013-2-6,25.6,11.8,-7.7,22.0,7.1,-14.0,87,81,74,30.16,29.98,3,0,0,0.00
2013-2-7,26.9,25.5,24.7,25.0,22.1,20.0,92,87,82,30.19,29.96,3,0,0,0.00
2013-2-8,31.8,18.3,5.6,20.0,8.7,0.0,88,68,41,30.37,30.19,2,0,0,0.08
2013-2-9,29.7,22.8,3.4,23.0,18.0,-1.0,90,82,72,30.29,29.95,7,1,0,0.00
2013-2-10,35.5,30.9,26.4,35.0,28.7,22.0,97,91,81,29.95,29.19,5,1,0,0.26
2013-2-11,34.7,27.5,20.6,34.0,23.6,14.0,97,86,74,29.98,29.20,7,1,0,0.06
2013-2-12,36.3,25.3,15.7,24.0,17.6,11.0,88,73,55,30.00,29.76,5,1,0,0.10
2013-2-13,38.2,29.7,21.3,30.0,22.8,17.0,92,76,58,29.75,29.51,5,1,0,0.05
2013-2-14,35.2,27.5,11.7,30.0,21.2,3.0,94,78,57,30.09,29.50,6,1,0,0.16
2013-2-15,18.9,11.2,3.9,5.0,1.3,-2.0,81,65,52,30.25,30.09,6,1,0,0.01
2013-2-16,21.0,6.8,-7.5,3.0,-3.6,-15.0,80,64,43,30.21,30.14,4,0,0,0.00
2013-2-17,30.1,10.9,-12.8,15.0,0.5,-19.0,86,64,46,30.17,29.72,5,1,0,0.01
2013-2-18,38.0,26.4,16.9,30.0,20.5,12.0,89,78,67,29.71,29.45,6,1,0,0.03
2013-2-19,16.4,8.0,1.8,12.0,-3.5,-10.0,81,60,48,30.29,29.62,11,3,0,0.00
2013-2-20,23.0,8.6,-3.3,7.0,-1.8,-11.0,73,63,49,30.43,30.29,4,1,0,0.01
2013-2-21,24.2,12.1,-5.0,12.0,2.8,-11.0,83,67,47,30.47,30.08,3,0,0,0.00
2013-2-22,31.9,24.9,19.7,25.0,21.0,13.0,90,85,73,30.07,29.78,2,0,0,0.01
2013-2-23,30.6,25.1,21.1,23.0,20.6,18.0,90,83,73,29.90,29.78,8,1,0,0.01
2013-2-24,42.1,26.9,16.4,23.0,18.7,12.0,89,73,45,30.07,29.91,4,0,0,0.06
2013-2-25,35.0,28.1,16.1,27.0,23.1,12.0,91,82,71,30.09,29.99,2,0,0,0.00
2013-2-26,37.9,31.2,25.6,26.0,24.4,22.0,89,76,60,30.01,29.77,8,1,0,0.00
2013-2-27,36.2,32.1,29.5,27.0,24.2,22.0,79,73,64,29.89,29.75,9,2,0,0.00
2013-2-28,31.8,28.8,23.0,25.0,19.7,14.0,82,69,62,30.17,29.90,6,1,0,0.01
2013-3-1,34.7,25.2,17.2,15.0,12.6,10.0,72,60,40,30.30,30.17,3,0,0,0.00
2013-3-2,31.6,17.8,1.1,14.0,6.8,-5.0,87,64,37,30.33,30.16,5,0,0,0.00
2013-3-3,36.3,17.6,-2.2,10.0,1.8,-8.0,87,54,25,30.17,30.01,4,0,0,0.00
2013-3-4,27.5,22.3,12.9,20.0,11.3,0.0,79,63,49,30.04,29.97,7,1,0,0.00
2013-3-5,30.3,25.1,21.8,25.0,21.2,19.0,89,85,79,30.19,29.96,4,0,0,0.02
2013-3-6,32.5,23.1,8.1,20.0,14.9,2.0,85,72,52,30.35,30.18,6,1,0,0.19
2013-3-7,38.0,19.1,-3.3,18.0,8.3,-9.0,89,65,39,30.41,30.31,4,0,0,0.11
2013-3-8,45.1,28.1,9.9,27.0,18.9,6.0,92,70,49,30.36,30.11,8,1,0,0.01
2013-3-9,35.9,33.8,31.2,35.0,31.2,24.0,96,90,71,30.10,29.67,9,0,0,0.32
2013-3-10,36.6,33.8,30.0,34.0,31.7,29.0,97,92,81,29.85,29.68,5,1,0,0.12
2013-3-11,33.7,28.6,26.0,31.0,26.5,23.0,95,91,87,29.75,29.62,0,0,0,0.01
2013-3-12,32.2,24.8,19.5,23.0,17.7,13.0,88,75,55,30.08,29.74,12,2,0,0.01
2013-3-13,34.3,22.0,11.9,15.0,8.9,4.0,81,59,36,30.30,30.09,5,1,0,0.04
2013-3-14,41.6,26.2,14.6,29.0,19.7,8.0,86,77,58,30.25,29.98,4,1,0,0.09
2013-3-15,37.0,30.8,25.3,31.0,27.1,22.0,92,86,74,29.95,29.79,2,0,0,0.09
2013-3-16,30.3,22.7,14.0,25.0,15.2,5.0,92,74,54,30.17,29.80,6,1,0,0.23
2013-3-17,30.4,17.7,1.5,14.0,6.5,-5.0,79,63,40,30.26,29.93,5,1,0,0.03
2013-3-18,30.3,21.2,14.6,25.0,16.2,9.0,87,81,71,29.92,29.54,11,2,0,0.00
2013-3-19,26.1,16.2,8.4,8.0,3.5,-4.0,77,59,42,30.08,29.68,14,4,0,0.08
2013-3-20,21.3,10.9,1.5,3.0,-2.8,-8.0,71,55,42,30.12,30.06,7,2,0,0.00
2013-3-21,28.4,9.8,-11.0,9.0,-1.6,-18.0,84,62,42,30.12,30.04,4,1,0,0.02
2013-3-22,40.3,18.1,-3.9,17.0,5.1,-10.0,87,61,32,30.08,30.00,4,0,0,0.01
2013-3-23,43.5,26.1,10.0,22.0,15.6,6.0,90,67,39,30.13,30.02,4,0,0,0.00
2013-3-24,34.6,30.1,25.1,23.0,20.7,17.0,77,68,56,30.05,29.89,5,1,0,0.00
2013-3-25,38.0,28.0,14.8,22.0,17.4,10.0,86,66,45,30.15,29.95,7,1,0,0.00
2013-3-26,41.5,31.5,22.2,23.0,20.2,17.0,84,65,45,30.23,30.15,7,1,0,0.00
2013-3-27,46.2,35.0,22.9,23.0,18.0,12.0,74,53,27,30.29,30.23,5,1,0,0.00
2013-3-28,50.8,31.6,13.1,22.0,15.7,9.0,92,58,25,30.34,30.25,4,0,0,0.00
2013-3-29,51.1,33.7,16.7,25.0,19.4,13.0,90,61,27,30.29,30.07,4,0,0,0.00
2013-3-30,41.3,38.0,29.4,40.0,33.5,26.0,95,85,60,30.07,29.77,7,0,0,0.68
2013-3-31,40.9,33.4,27.2,33.0,24.3,12.0,96,73,35,29.96,29.70,9,2,0,0.01
2013-4-1,33.2,26.1,18.0,14.0,11.4,8.0,71,55,41,30.17,29.97,7,2,0,0.00
2013-4-2,36.6,26.4,16.5,15.0,12.1,8.0,73,56,41,30.30,30.17,10,1,0,0.00
2013-4-3,45.2,30.6,10.4,22.0,13.4,5.0,89,54,26,30.41,30.07,7,1,0,0.00
2013-4-4,50.5,41.9,30.7,33.0,25.7,21.0,69,54,40,30.07,29.95,5,2,0,0.00
2013-4-5,45.2,33.9,21.6,31.0,20.6,14.0,92,62,28,30.21,29.96,4,0,0,0.00
2013-4-6,49.4,38.0,32.8,38.0,30.3,23.0,94,76,49,29.95,29.43,9,2,0,0.38
2013-4-7,46.8,37.8,34.0,35.0,32.2,30.0,92,81,58,29.90,29.63,5,0,0,0.00
2013-4-8,42.9,38.2,35.2,39.0,35.9,32.0,97,91,82,29.96,29.66,3,0,0,0.33
2013-4-9,39.9,37.3,33.7,39.0,34.6,28.0,96,90,72,30.08,29.93,3,0,0,0.50
2013-4-10,40.2,34.1,28.2,32.0,28.9,21.0,95,82,52,30.13,29.85,5,0,0,0.50
2013-4-11,36.8,33.4,29.4,33.0,27.6,21.0,94,80,55,29.86,29.62,7,1,0,0.24
2013-4-12,37.2,31.9,27.9,31.0,28.4,26.0,94,87,71,29.74,29.58,6,0,0,0.26
2013-4-13,37.8,30.9,24.2,27.0,24.6,19.0,90,78,60,29.95,29.73,5,1,0,0.08
2013-4-14,34.7,29.7,21.0,34.0,27.0,18.0,97,89,72,29.95,29.51,6,2,0,0.01
2013-4-15,41.5,36.7,31.8,35.0,28.8,25.0,98,75,57,29.89,29.54,13,3,0,0.04
2013-4-16,46.8,37.2,27.8,28.0,26.5,22.0,81,66,46,30.28,29.89,9,1,0,0.00
2013-4-17,39.9,34.7,26.3,33.0,28.3,23.0,92,78,67,30.29,29.80,5,1,0,0.04
2013-4-18,37.5,34.9,31.5,35.0,33.6,31.0,96,95,89,29.81,29.28,6,1,0,0.58
2013-4-19,35.2,30.9,24.8,30.0,25.3,20.0,96,80,61,29.91,29.25,13,3,0,0.11
2013-4-20,44.2,30.3,16.1,20.0,13.6,9.0,91,56,26,30.29,29.92,5,1,0,0.00
2013-4-21,45.2,36.5,27.3,43.0,30.6,16.0,96,80,56,30.32,30.04,7,1,0,0.30
2013-4-22,44.6,38.8,32.4,44.0,38.1,31.0,97,97,96,30.13,29.97,5,1,0,0.57
2013-4-23,41.2,34.8,29.1,31.0,27.2,20.0,96,76,46,30.04,29.93,9,2,0,0.16
2013-4-24,52.2,38.4,25.3,34.0,24.3,19.0,92,60,33,29.99,29.82,12,2,0,0.05
2013-4-25,49.8,38.7,31.8,33.0,29.5,25.0,94,73,39,30.16,29.89,6,1,0,0.01
2013-4-26,74.2,54.8,33.5,41.0,34.8,25.0,78,51,26,30.12,29.93,12,2,0,0.00
2013-4-27,74.4,56.0,34.9,48.0,42.3,33.0,98,64,35,30.06,29.87,8,1,0,0.00
2013-4-28,76.8,59.3,37.3,53.0,42.3,35.0,97,59,28,29.86,29.64,10,1,0,0.04
2013-4-29,77.4,61.7,52.8,56.0,53.1,49.0,96,76,40,29.71,29.55,4,1,0,0.10
2013-4-30,82.4,66.5,53.3,57.0,49.9,32.0,91,61,25,29.84,29.41,11,2,0,0.07
2013-5-1,53.2,42.9,33.8,51.0,39.3,32.0,94,87,77,30.40,29.84,7,1,0,0.50
2013-5-2,34.3,32.4,30.6,33.0,31.4,30.0,96,96,94,30.45,30.36,7,1,0,0.30
2013-5-3,35.3,32.4,30.3,34.0,31.1,29.0,96,95,91,30.34,30.07,4,1,0,0.47
2013-5-4,56.5,41.8,32.9,43.0,37.2,32.0,97,85,58,30.08,30.03,3,1,0,0.85
2013-5-5,69.6,50.4,33.8,48.0,40.4,32.0,94,71,44,30.09,29.97,5,1,0,0.00
2013-5-6,78.6,57.4,37.2,47.0,39.9,35.0,96,60,24,30.04,29.93,5,1,0,0.00
2013-5-7,84.1,61.8,40.8,48.0,40.2,36.0,96,54,20,30.00,29.88,6,0,0,0.00
2013-5-8,81.6,63.5,40.8,51.0,42.6,38.0,97,54,24,29.94,29.85,6,0,0,0.00
2013-5-9,62.3,52.4,41.6,53.0,48.6,40.0,96,87,69,29.99,29.85,5,0,0,0.64
2013-5-10,67.9,50.2,37.5,40.0,32.8,25.0,94,58,20,30.02,29.83,6,1,0,0.00
2013-5-11,50.2,45.3,39.6,45.0,29.3,21.0,86,56,35,30.05,29.75,13,3,0,0.05
2013-5-12,56.6,44.7,32.2,26.0,19.9,14.0,69,41,20,30.12,30.01,9,2,0,0.00
2013-5-13,65.0,47.9,24.8,38.0,28.4,21.0,93,52,22,30.09,29.64,4,1,0,0.00
2013-5-14,91.2,68.2,40.6,55.0,43.6,33.0,95,48,18,29.68,29.35,10,1,0,0.00
2013-5-15,78.1,66.7,56.2,46.0,43.6,37.0,67,45,27,29.80,29.50,9,2,0,0.00
2013-5-16,86.5,68.0,46.2,49.0,42.6,32.0,94,47,20,29.84,29.74,5,0,0,0.00
2013-5-17,65.8,54.8,50.2,54.0,48.4,39.0,96,80,43,29.97,29.83,5,1,0,0.15
2013-5-18,79.6,63.2,50.4,62.0,55.4,48.0,93,78,52,29.96,29.76,9,1,0,0.00
2013-5-19,86.1,67.9,58.7,66.0,61.0,56.0,97,81,44,29.77,29.52,7,1,0,1.64
2013-5-20,76.3,66.5,58.3,63.0,58.8,54.0,98,79,50,29.58,29.44,14,2,0,0.44
2013-5-21,69.9,62.0,56.9,65.0,57.9,52.0,98,87,62,29.60,29.45,3,0,0,0.70
2013-5-22,58.4,54.1,50.2,56.0,51.1,47.0,96,89,80,29.83,29.58,4,0,0,0.32
2013-5-23,66.4,52.1,41.1,49.0,36.7,28.0,96,61,26,30.28,29.86,7,1,0,0.00
2013-5-24,69.9,51.7,30.9,45.0,35.8,27.0,96,60,26,30.38,30.19,5,0,0,0.00
2013-5-25,60.4,55.0,50.5,51.0,47.2,42.0,96,76,54,30.25,30.17,4,0,0,0.07
2013-5-26,64.0,55.7,44.5,47.0,41.9,36.0,90,62,39,30.21,30.04,5,1,0,0.00
2013-5-27,59.3,55.7,51.7,54.0,48.4,41.0,97,77,61,30.03,29.79,4,1,0,0.27
2013-5-28,58.1,54.7,51.4,57.0,54.0,51.0,99,97,96,29.79,29.62,1,0,0,0.08
2013-5-29,78.3,62.4,55.7,68.0,60.4,55.0,98,93,67,29.77,29.64,4,0,0,0.87
2013-5-30,76.5,68.3,61.8,69.0,64.2,60.0,100,87,63,29.68,29.45,10,1,0,0.15
2013-5-31,79.2,66.5,57.3,67.0,60.0,55.0,95,81,51,29.55,29.45,10,2,0,0.80
2013-6-1,74.4,60.0,49.2,61.0,54.7,44.0,100,84,52,29.78,29.49,6,1,0,0.12
2013-6-2,66.3,52.4,43.8,45.0,41.8,39.0,89,70,40,30.00,29.79,10,1,0,0.01
2013-6-3,71.5,56.0,38.3,50.0,43.1,36.0,98,67,33,30.00,29.91,4,0,0,0.00
2013-6-4,58.1,55.0,52.6,55.0,50.1,43.0,96,84,62,30.08,29.94,1,0,0,0.20
2013-6-5,55.3,53.1,51.0,55.0,52.8,50.0,100,99,96,30.04,29.88,2,0,0,0.75
2013-6-6,54.7,52.9,51.3,55.0,52.4,51.0,100,98,95,29.94,29.87,0,0,0,0.03
2013-6-7,74.0,59.1,51.4,53.0,50.7,46.0,98,77,37,29.96,29.84,3,0,0,0.01
2013-6-8,71.1,60.8,51.6,59.0,53.7,49.0,97,79,60,29.87,29.83,3,0,0,0.00
2013-6-9,65.2,58.8,53.6,64.0,56.7,51.0,97,92,81,29.87,29.72,2,0,0,0.31
2013-6-10,76.3,64.7,55.4,66.0,59.2,54.0,100,84,58,29.76,29.71,3,0,0,0.00
2013-6-11,79.6,65.1,52.0,67.0,60.2,50.0,100,85,59,29.81,29.74,3,0,0,0.02
2013-6-12,70.8,65.0,61.2,68.0,63.2,60.0,97,94,84,29.81,29.66,1,0,0,0.14
2013-6-13,80.7,65.4,51.9,60.0,54.4,49.0,97,71,41,30.01,29.77,6,1,0,0.00
2013-6-14,81.4,65.3,50.1,61.0,54.3,48.0,98,71,40,30.05,29.84,4,0,0,0.04
2013-6-15,75.4,66.2,58.3,70.0,62.6,56.0,96,88,77,29.88,29.72,4,0,0,0.11
2013-6-16,85.7,68.2,50.4,61.0,53.5,48.0,99,66,28,29.82,29.74,9,0,0,0.00
2013-6-17,83.2,67.5,52.9,61.0,54.4,50.0,96,66,37,29.90,29.75,5,1,0,0.00
2013-6-18,80.7,66.0,55.7,57.0,52.5,45.0,90,66,28,30.02,29.91,3,0,0,0.00
2013-6-19,82.6,66.4,51.4,62.0,55.0,47.0,91,69,44,30.04,29.91,4,0,0,0.00
2013-6-20,85.1,70.4,59.6,73.0,61.7,56.0,96,76,47,29.98,29.85,4,0,0,0.26
2013-6-21,78.5,69.1,63.5,69.0,64.8,61.0,97,86,65,30.01,29.68,4,1,0,2.13
2013-6-22,80.9,70.1,63.2,72.0,67.3,62.0,100,91,71,29.94,29.75,2,0,0,0.18
2013-6-23,83.8,73.5,65.0,69.0,65.3,63.0,95,77,53,29.80,29.65,7,1,0,0.03
2013-6-24,82.2,71.9,61.6,72.0,65.8,59.0,99,81,67,29.83,29.72,5,0,0,0.00
2013-6-25,86.3,73.3,63.4,74.0,67.1,62.0,97,82,57,29.78,29.64,6,0,0,0.11
2013-6-26,87.0,73.4,67.1,75.0,69.9,65.0,98,89,62,29.67,29.58,6,0,0,0.68
2013-6-27,87.4,74.6,64.2,71.0,63.6,55.0,98,73,37,29.71,29.63,7,1,0,0.02
2013-6-28,78.8,67.7,60.2,69.0,60.4,55.0,89,78,61,29.68,29.57,9,1,0,0.07
2013-6-29,70.6,64.4,59.2,63.0,57.9,49.0,90,80,63,29.87,29.63,6,0,0,0.03
2013-6-30,84.1,65.3,48.0,58.0,51.5,45.0,97,65,30,30.01,29.87,6,0,0,0.00
2013-7-1,86.3,67.7,51.0,64.0,54.6,48.0,98,67,36,30.10,30.01,3,0,0,0.00
2013-7-2,84.1,67.5,52.0,64.0,54.4,48.0,96,66,32,30.07,29.97,1,0,0,0.00
2013-7-3,84.1,67.8,51.7,64.0,55.7,49.0,98,69,38,30.01,29.89,3,0,0,0.00
2013-7-4,87.2,72.3,57.0,63.0,59.2,53.0,95,66,40,29.92,29.83,10,1,0,0.00
2013-7-5,88.8,75.7,61.0,62.0,59.1,56.0,90,60,34,29.88,29.78,6,1,0,0.00
2013-7-6,90.5,75.4,63.9,70.0,63.3,59.0,91,67,43,29.84,29.76,5,1,0,0.00
2013-7-7,90.3,79.2,70.3,72.0,68.2,65.0,93,70,49,29.78,29.73,4,0,0,0.01
2013-7-8,88.4,76.4,69.1,72.0,69.4,66.0,94,80,52,29.88,29.72,3,0,0,0.00
2013-7-9,86.7,75.4,66.1,75.0,68.4,64.0,100,80,52,29.88,29.68,6,1,0,0.09
2013-7-10,79.8,70.6,59.0,67.0,57.2,53.0,85,65,40,29.94,29.74,8,1,0,0.00
2013-7-11,88.4,68.3,53.1,62.0,56.1,51.0,98,70,30,30.04,29.94,3,0,0,0.00
2013-7-12,87.0,71.6,59.0,63.0,60.0,57.0,96,70,41,30.00,29.89,8,1,0,0.00
2013-7-13,80.7,70.2,63.5,64.0,61.0,57.0,94,74,51,30.01,29.89,5,1,0,0.06
2013-7-14,88.8,74.2,61.8,67.0,63.2,59.0,96,72,42,30.11,30.01,5,0,0,0.00
2013-7-15,93.8,75.3,60.5,70.0,64.6,59.0,100,73,38,30.17,30.08,5,0,0,0.00
2013-7-16,97.5,81.7,69.9,73.0,69.6,66.0,96,70,35,30.12,30.07,6,1,0,0.00
2013-7-17,96.6,81.8,69.8,72.0,68.1,63.0,96,67,35,30.15,30.02,5,0,0,0.00
2013-7-18,96.8,83.6,70.3,71.0,68.3,66.0,94,63,38,30.02,29.66,7,1,0,0.00
2013-7-19,90.7,80.7,65.5,71.0,64.4,55.0,84,60,37,29.76,29.58,8,1,0,0.02
2013-7-20,86.5,70.7,60.5,62.0,58.2,52.0,95,68,37,29.88,29.74,2,0,0,0.00
2013-7-21,76.5,65.6,57.3,67.0,58.9,50.0,97,80,61,29.91,29.77,2,0,0,0.15
2013-7-22,88.0,70.8,59.9,74.0,64.9,56.0,98,83,51,29.79,29.54,6,1,0,0.05
2013-7-23,77.6,64.9,54.2,57.0,52.9,47.0,95,68,41,29.94,29.70,4,0,0,0.00
2013-7-24,77.9,62.3,47.6,55.0,50.5,45.0,97,68,36,30.01,29.91,4,0,0,0.00
2013-7-25,83.4,67.4,53.3,64.0,59.4,52.0,98,78,49,29.92,29.82,5,1,0,0.19
2013-7-26,75.4,64.7,52.9,64.0,57.2,49.0,97,79,47,29.95,29.78,12,1,0,0.03
2013-7-27,58.1,52.6,46.5,51.0,47.0,44.0,94,82,62,29.94,29.81,7,1,0,0.06
2013-7-28,69.3,57.2,47.9,54.0,50.6,46.0,97,80,54,29.98,29.83,6,1,0,0.01
2013-7-29,81.2,61.9,45.4,58.0,51.9,43.0,100,74,41,30.06,29.98,5,0,0,0.00
2013-7-30,75.1,66.3,58.3,64.0,60.1,56.0,92,81,62,30.06,29.96,4,0,0,0.02
2013-7-31,81.6,69.2,58.0,66.0,61.3,54.0,96,77,43,29.97,29.85,3,0,0,0.00
2013-8-1,83.8,66.9,51.6,58.0,53.4,50.0,96,67,32,29.94,29.77,3,0,0,0.00
2013-8-2,78.3,64.7,51.7,60.0,53.0,46.0,98,70,33,29.93,29.73,5,1,0,0.00
2013-8-3,78.6,62.1,46.8,56.0,48.7,44.0,98,67,30,30.09,29.93,7,0,0,0.00
2013-8-4,76.8,60.8,45.4,57.0,50.4,43.0,100,72,40,30.18,29.98,6,0,0,0.00
2013-8-5,70.1,63.2,53.5,67.0,59.9,51.0,97,89,78,29.96,29.73,4,0,0,0.06
2013-8-6,87.2,71.7,61.5,67.0,62.0,55.0,97,75,39,29.76,29.59,4,0,0,0.09
2013-8-7,79.8,65.9,54.1,62.0,56.2,49.0,97,75,37,29.94,29.67,4,0,0,0.01
2013-8-8,81.6,63.3,46.4,58.0,51.0,44.0,100,69,35,29.98,29.89,4,0,0,0.00
2013-8-9,81.6,66.5,53.6,60.0,52.8,48.0,98,66,33,30.01,29.89,6,1,0,0.00
2013-8-10,76.5,66.1,54.4,55.0,52.9,50.0,86,65,42,30.09,30.01,4,0,0,0.00
2013-8-11,80.7,66.5,53.3,62.0,57.9,50.0,96,77,50,30.04,29.92,3,0,0,0.00
2013-8-12,82.0,66.6,55.3,64.0,55.7,50.0,100,72,35,29.97,29.87,5,1,0,0.00
2013-8-13,74.7,60.5,46.8,52.0,47.8,45.0,97,67,36,30.11,29.98,5,0,0,0.00
2013-8-14,79.6,61.1,47.9,53.0,48.2,44.0,97,68,29,30.14,30.03,3,0,0,0.00
2013-8-15,82.2,64.1,50.4,56.0,49.6,44.0,97,66,27,30.07,29.99,4,0,0,0.00
2013-8-16,87.8,66.0,48.0,58.0,51.6,45.0,98,66,27,30.11,30.05,3,0,0,0.00
2013-8-17,87.2,66.6,48.9,61.0,52.1,46.0,100,66,28,30.15,30.04,4,0,0,0.00
2013-8-18,85.3,67.7,50.5,62.0,53.9,48.0,100,67,32,30.10,29.95,6,1,0,0.00
2013-8-19,86.7,70.3,54.7,66.0,60.2,53.0,96,73,45,29.96,29.85,7,0,0,0.00
2013-8-20,91.4,76.6,64.2,69.0,65.8,61.0,90,71,46,29.87,29.79,9,1,0,0.00
2013-8-21,90.1,75.4,66.0,73.0,67.5,64.0,95,78,51,29.90,29.76,4,1,0,0.11
2013-8-22,88.4,72.1,62.7,66.0,59.8,50.0,99,71,32,30.04,29.89,4,0,0,0.00
2013-8-23,89.0,69.6,52.5,63.0,56.9,49.0,97,68,36,30.09,29.99,4,0,0,0.00
2013-8-24,87.6,72.6,62.0,70.0,63.6,53.0,94,75,51,30.08,29.92,5,1,0,0.07
2013-8-25,97.3,84.6,76.5,73.0,70.0,68.0,78,63,42,29.96,29.86,15,2,0,0.00
2013-8-26,98.0,85.4,77.4,74.0,71.1,69.0,81,64,41,29.93,29.75,5,1,0,0.00
2013-8-27,99.4,84.0,72.7,77.0,71.9,69.0,90,69,40,29.78,29.66,3,0,0,0.00
2013-8-28,89.9,77.2,68.9,71.0,69.4,67.0,96,78,51,29.92,29.78,4,0,0,0.00
2013-8-29,96.1,79.8,67.3,73.0,70.4,65.0,96,75,42,29.94,29.76,5,0,0,0.00
2013-8-30,88.8,78.5,67.8,73.0,67.3,61.0,93,70,44,29.79,29.68,9,0,0,0.00
2013-8-31,90.7,73.0,58.0,66.0,62.1,56.0,97,72,39,29.80,29.63,6,0,0,0.00
2013-9-1,78.5,70.8,62.3,67.0,61.6,54.0,94,74,49,29.84,29.61,6,1,0,0.03
2013-9-2,73.9,61.4,49.6,53.0,50.2,45.0,84,68,43,29.98,29.84,5,0,0,0.00
2013-9-3,79.4,58.6,39.3,55.0,47.4,37.0,99,71,37,30.04,29.92,4,0,0,0.00
2013-9-4,85.9,65.8,48.2,65.0,55.9,46.0,99,73,43,30.07,29.94,4,0,0,0.00
2013-9-5,84.9,66.3,50.8,59.0,54.6,48.0,97,70,30,30.17,30.06,5,0,0,0.00
2013-9-6,91.6,73.1,58.3,64.0,60.7,55.0,96,69,36,30.06,29.81,6,1,0,0.00
2013-9-7,94.7,76.9,64.0,69.0,64.6,61.0,94,69,36,29.91,29.75,4,0,0,0.00
2013-9-8,79.6,69.2,59.3,63.0,57.3,50.0,82,67,43,30.00,29.82,3,0,0,0.00
2013-9-9,89.5,76.6,65.3,73.0,66.1,62.0,92,72,48,29.82,29.54,5,1,0,0.00
2013-9-10,86.7,76.8,70.3,69.0,64.8,61.0,92,68,43,29.85,29.61,5,0,0,0.00
2013-9-11,89.0,72.5,57.3,64.0,55.8,47.0,90,60,26,29.93,29.85,4,1,0,0.00
2013-9-12,72.7,61.5,52.8,54.0,49.0,44.0,92,66,37,30.15,29.89,9,1,0,0.00
2013-9-13,73.2,53.8,37.5,47.0,41.1,35.0,98,67,30,30.22,30.04,5,0,0,0.00
2013-9-14,77.9,56.1,37.2,55.0,43.6,35.0,99,69,30,30.05,29.85,3,0,0,0.46
2013-9-15,67.3,57.2,46.5,60.0,53.1,41.0,99,87,69,30.25,29.82,3,0,0,0.33
2013-9-16,70.9,50.4,36.2,46.0,39.4,34.0,98,71,28,30.37,30.23,3,0,0,0.00
2013-9-17,68.4,53.4,39.9,56.0,46.8,38.0,99,81,47,30.24,29.92,6,0,0,0.12
2013-9-18,72.0,64.1,57.0,67.0,62.2,56.0,99,93,81,29.92,29.67,4,0,0,0.15
2013-9-19,80.1,69.4,65.5,71.0,67.1,64.0,98,92,68,29.68,29.60,6,0,0,0.59
2013-9-20,65.5,60.9,53.8,64.0,54.5,47.0,95,80,62,29.81,29.62,6,1,0,0.00
2013-9-21,66.4,53.2,42.8,48.0,45.1,40.0,95,76,44,29.91,29.81,3,0,0,0.00
2013-9-22,71.3,52.3,37.3,49.0,43.6,36.0,98,76,43,30.00,29.86,4,0,0,0.00
2013-9-23,73.9,57.1,45.5,52.0,47.6,43.0,95,73,43,29.98,29.87,5,0,0,0.00
2013-9-24,77.4,57.3,43.8,57.0,48.0,42.0,99,76,37,29.95,29.85,4,0,0,0.00
2013-9-25,74.0,55.6,41.9,57.0,47.6,40.0,99,78,43,29.95,29.84,3,0,0,0.00
2013-9-26,79.2,60.7,46.2,58.0,52.2,44.0,99,76,47,29.95,29.86,6,0,0,0.00
2013-9-27,81.6,67.4,54.5,61.0,55.1,50.0,87,67,47,29.93,29.80,10,1,0,0.00
2013-9-28,71.8,60.3,49.8,62.0,53.2,48.0,95,78,54,29.87,29.60,6,1,0,0.26
2013-9-29,74.9,55.8,38.5,53.0,45.1,37.0,99,72,34,29.94,29.80,4,0,0,0.01
2013-9-30,75.6,61.5,51.0,52.0,48.3,45.0,85,64,35,29.79,29.60,11,2,0,0.00
2013-10-1,79.0,65.3,44.1,58.0,45.9,33.0,82,54,22,29.89,29.56,6,1,0,0.00
2013-10-2,78.6,57.4,36.0,54.0,42.2,33.0,99,64,25,30.04,29.80,4,0,0,0.09
2013-10-3,59.2,56.3,53.6,59.0,55.5,53.0,98,97,86,29.86,29.73,2,0,0,0.45
2013-10-4,58.6,56.4,55.1,58.0,55.9,55.0,99,98,97,29.92,29.81,3,0,0,0.08
2013-10-5,62.3,57.7,48.0,62.0,57.3,47.0,99,99,96,29.86,29.60,4,0,0,0.61
2013-10-6,57.5,48.2,39.6,50.0,43.9,39.0,100,86,58,29.71,29.60,2,0,0,0.04
2013-10-7,68.4,51.0,41.1,51.0,42.8,38.0,98,78,34,29.96,29.71,3,0,0,0.01
2013-10-8,74.7,57.1,39.9,50.0,43.9,38.0,98,67,34,29.96,29.84,8,1,0,0.00
2013-10-9,76.1,60.4,47.3,53.0,48.5,44.0,96,68,41,30.01,29.89,8,1,0,0.00
2013-10-10,74.9,55.0,40.2,53.0,46.3,38.0,99,76,40,30.04,29.89,4,0,0,0.00
2013-10-11,76.3,61.5,47.6,57.0,51.6,46.0,98,73,46,29.89,29.66,6,1,0,0.00
2013-10-12,66.9,56.5,46.0,55.0,43.9,38.0,77,63,46,30.07,29.65,7,1,0,0.00
2013-10-13,62.7,47.3,35.0,42.0,36.6,31.0,94,70,33,30.36,30.08,5,0,0,0.00
2013-10-14,56.2,44.8,30.4,43.0,35.9,28.0,98,74,51,30.36,29.96,5,0,0,0.00
2013-10-15,53.6,49.1,46.4,53.0,47.8,42.0,99,95,75,29.96,29.61,4,0,0,0.66
2013-10-16,47.7,43.8,32.7,47.0,41.2,31.0,97,90,79,29.86,29.66,4,0,0,0.01
2013-10-17,53.9,41.6,29.4,46.0,37.4,28.0,99,86,62,29.84,29.70,2,0,0,0.02
2013-10-18,51.4,42.4,31.6,44.0,36.7,29.0,95,82,44,29.86,29.68,4,0,0,0.12
2013-10-19,47.3,39.1,31.5,40.0,34.3,30.0,96,83,67,29.80,29.62,5,0,0,0.02
2013-10-20,41.8,36.1,27.8,41.0,34.7,26.0,98,94,90,29.74,29.58,5,0,0,0.14
2013-10-21,36.5,34.8,31.6,34.0,25.1,19.0,92,69,50,29.88,29.75,7,1,0,0.00
2013-10-22,38.3,32.4,26.1,30.0,25.7,21.0,92,77,65,29.97,29.88,3,0,0,0.00
2013-10-23,38.3,31.7,23.3,33.0,26.2,20.0,95,80,60,30.02,29.93,6,0,0,0.00
2013-10-24,41.9,36.7,31.3,29.0,25.7,23.0,76,65,50,30.24,30.01,4,0,0,0.00
2013-10-25,53.5,43.4,33.8,37.0,30.4,26.0,82,62,46,30.25,29.67,12,2,0,0.00
2013-10-26,52.6,43.8,33.2,39.0,30.8,26.0,79,61,48,30.02,29.66,8,1,0,0.00
2013-10-27,61.8,41.8,26.1,33.0,28.9,24.0,94,65,30,30.05,29.74,5,1,0,0.00
2013-10-28,48.0,36.3,25.6,31.0,24.0,18.0,81,63,39,30.39,30.06,4,0,0,0.00
2013-10-29,42.3,35.1,25.1,36.0,28.6,20.0,87,77,68,30.38,30.06,2,0,0,0.00
2013-10-30,51.1,45.1,39.2,51.0,44.3,36.0,99,97,86,30.05,29.61,1,0,0,0.18
2013-10-31,51.4,46.7,39.6,51.0,46.4,39.0,99,99,97,29.61,29.28,5,0,0,0.03
2013-11-1,43.9,41.1,38.9,40.0,37.9,33.0,97,88,75,29.75,29.28,3,0,0,0.00
2013-11-2,45.8,37.7,26.9,35.0,31.5,24.0,89,79,62,30.08,29.75,3,0,0,0.00
2013-11-3,51.9,38.5,25.4,36.0,29.7,22.0,98,73,50,30.16,29.94,16,1,0,0.00
2013-11-4,45.7,43.1,33.4,44.0,37.9,31.0,96,83,61,30.10,29.85,5,1,0,0.19
2013-11-5,42.6,34.7,26.6,42.0,33.4,25.0,99,94,91,30.21,29.87,3,0,0,0.40
2013-11-6,42.6,34.3,27.3,33.0,27.9,22.0,97,79,48,30.10,29.85,10,1,0,0.12
2013-11-7,35.5,29.3,24.5,28.0,25.4,22.0,94,85,74,30.19,30.10,3,0,0,0.00
2013-11-8,43.6,31.6,18.6,37.0,26.1,16.0,96,81,60,30.18,29.57,5,1,0,0.01
2013-11-9,45.2,41.5,37.0,41.0,33.0,25.0,88,73,55,30.06,29.56,11,2,0,0.00
2013-11-10,48.2,39.9,34.3,30.0,27.3,24.0,70,61,45,30.27,30.02,7,1,0,0.00
2013-11-11,39.1,27.0,17.5,31.0,13.6,5.0,88,58,39,30.64,30.01,9,2,0,0.00
2013-11-12,29.1,19.1,11.9,11.0,8.2,5.0,77,63,43,30.74,30.48,4,1,0,0.00
2013-11-13,49.1,32.5,14.1,28.0,20.5,10.0,87,63,43,30.46,29.83,10,2,0,0.00
2013-11-14,42.9,36.3,27.8,33.0,28.1,24.0,89,73,62,29.83,29.73,4,0,0,0.00
2013-11-15,56.3,37.9,22.9,43.0,30.5,21.0,99,77,46,29.83,29.66,5,0,0,0.00
2013-11-16,53.1,45.3,41.1,53.0,41.3,33.0,99,86,73,29.65,29.19,6,1,0,0.06
2013-11-17,44.2,40.2,32.5,40.0,35.5,24.0,95,83,71,29.67,29.24,6,1,0,0.01
2013-11-18,32.4,27.4,16.7,25.0,18.9,12.0,83,71,64,30.24,29.68,7,2,0,0.00
2013-11-19,39.9,28.2,13.5,24.0,18.3,10.0,94,69,49,30.28,29.98,5,1,0,0.00
2013-11-20,41.2,36.5,32.2,32.0,26.7,21.0,96,71,48,30.00,29.93,5,1,0,0.01
2013-11-21,35.5,31.6,25.1,35.0,30.2,22.0,98,94,84,30.39,30.01,7,1,0,0.01
2013-11-22,31.8,23.7,16.5,22.0,14.9,7.0,91,71,46,30.52,30.39,6,1,0,0.00
2013-11-23,18.8,11.7,3.4,8.0,0.3,-3.0,74,61,43,30.76,30.49,6,2,0,0.00
2013-11-24,25.8,14.4,-0.8,11.0,2.6,-6.0,85,62,40,30.70,30.02,10,2,0,0.00
2013-11-25,37.6,32.0,25.6,27.0,20.9,11.0,72,64,54,30.01,29.86,11,2,0,0.00
2013-11-26,31.8,21.0,12.3,20.0,7.1,0.0,81,56,43,30.30,29.96,14,2,0,0.00
2013-11-27,26.9,17.2,6.1,11.0,6.5,1.0,83,64,46,30.34,30.08,3,0,0,0.00
2013-11-28,28.7,22.6,11.7,13.0,10.4,5.0,73,60,50,30.49,30.05,6,1,0,0.00
2013-11-29,29.7,19.6,4.8,19.0,11.3,-1.0,88,71,57,30.55,30.18,7,0,0,0.00
2013-11-30,39.9,31.1,22.5,26.0,22.8,17.0,88,72,58,30.18,29.97,4,0,0,0.00
2013-12-1,38.9,25.5,15.4,27.0,19.9,12.0,95,80,55,30.15,29.92,1,0,0,0.00
2013-12-2,34.4,28.0,17.0,32.0,25.9,14.0,96,92,84,29.91,29.62,3,0,0,0.01
2013-12-3,33.5,32.2,29.7,33.0,31.5,29.0,97,97,96,29.74,29.58,5,1,0,0.00
2013-12-4,33.7,30.8,25.0,33.0,29.9,21.0,98,96,82,29.75,29.37,11,1,0,0.00
2013-12-5,23.5,10.0,2.4,19.0,2.4,-4.0,82,71,61,30.30,29.57,11,3,0,0.00
2013-12-6,7.6,1.8,-2.4,-3.0,-6.3,-10.0,75,69,60,30.62,30.31,4,1,0,0.00
2013-12-7,6.0,-2.7,-8.6,-8.0,-11.6,-16.0,77,66,52,30.73,30.61,7,1,0,0.00
2013-12-8,12.4,6.8,-3.7,7.0,1.6,-9.0,82,79,73,30.61,30.01,3,0,0,0.00
2013-12-9,9.9,2.1,-9.6,6.0,-4.8,-17.0,84,73,58,30.12,29.95,10,1,0,0.00
2013-12-10,9.5,4.1,-6.5,3.0,-3.4,-12.0,83,71,59,30.20,29.80,13,1,0,0.00
2013-12-11,7.9,-2.2,-7.5,3.0,-11.9,-16.0,79,63,46,30.54,30.21,7,1,0,0.00
2013-12-12,19.1,8.7,-3.5,11.0,1.0,-10.0,83,71,57,30.40,30.13,6,0,0,0.00
2013-12-13,18.4,14.7,11.7,12.0,7.1,4.0,79,72,64,30.26,30.12,4,0,0,0.00
2013-12-14,19.1,12.7,7.0,12.0,7.4,0.0,82,79,72,30.27,30.00,3,0,0,0.00
2013-12-15,6.5,-0.8,-9.6,-1.0,-10.3,-17.0,74,65,48,30.18,30.00,6,1,0,0.00
2013-12-16,15.1,4.6,-8.6,12.0,-1.7,-15.0,86,75,60,30.16,29.90,3,0,0,0.00
2013-12-17,29.7,22.4,9.2,26.0,15.1,1.0,93,74,61,30.07,29.79,9,2,0,0.00
2013-12-18,31.2,15.9,0.3,18.0,8.6,-5.0,85,73,57,30.06,29.64,6,1,0,0.01
2013-12-19,23.5,18.4,12.1,16.0,12.6,9.0,91,78,66,30.04,29.73,4,0,0,0.00
2013-12-20,20.3,18.2,15.6,15.0,12.4,10.0,84,78,70,29.98,29.81,4,0,0,0.00
2013-12-21,26.4,21.8,19.1,18.0,16.0,15.0,87,79,68,29.93,29.81,4,0,0,0.00
2013-12-22,26.9,22.1,15.1,21.0,17.2,11.0,87,81,76,30.12,29.83,3,0,0,0.00
2013-12-23,14.9,4.9,-5.6,11.0,-1.0,-12.0,84,77,70,30.48,30.13,5,1,0,0.00
2013-12-24,10.0,0.6,-13.3,5.0,-5.9,-20.0,82,74,67,30.50,30.18,5,1,0,0.00
2013-12-25,19.7,14.0,8.3,16.0,9.1,3.0,86,81,75,30.17,30.02,2,0,0,0.00
2013-12-26,25.6,18.2,11.6,18.0,12.3,6.0,84,78,69,30.16,30.07,2,0,0,0.00
2013-12-27,38.9,22.3,3.0,29.0,17.0,-2.0,93,80,65,30.16,29.86,6,1,0,0.08
2013-12-28,45.5,29.0,16.5,33.0,23.7,14.0,96,82,54,29.94,29.63,6,0,0,0.10
2013-12-29,26.7,4.8,-15.3,21.0,-5.5,-24.0,82,63,45,30.32,29.79,10,3,0,0.00
2013-12-30,0.1,-9.3,-22.3,-8.0,-17.6,-30.0,75,67,50,30.34,30.21,5,0,0,0.00
2013-12-31,0.3,-5.4,-16.9,-7.0,-13.7,-25.0,76,68,57,30.45,30.19,6,1,0,0.00
2014-1-1,6.1,-1.2,-16.4,-6.0,-10.8,-24.0,75,64,55,30.52,30.41,2,0,0,0.00
2014-1-2,8.4,-1.0,-17.5,-5.0,-10.5,-26.0,75,65,49,30.49,30.39,4,0,0,0.00